createdAt,value
2022-09-13T00:01:45.544Z,70.88
2022-09-13T00:04:12.436Z,71.23
2022-09-13T00:06:39.126Z,71.15
2022-09-13T00:09:05.822Z,71.05
2022-09-13T00:11:32.514Z,70.97
2022-09-13T00:13:59.404Z,70.93
2022-09-13T00:16:27.745Z,70.82
2022-09-13T00:18:54.638Z,70.80
2022-09-13T00:21:22.514Z,71.03
2022-09-13T00:23:51.158Z,70.83
2022-09-13T00:26:28.610Z,70.40
2022-09-13T00:28:57.816Z,70.54
2022-09-13T00:31:26.543Z,70.57
2022-09-13T00:33:53.556Z,70.57
2022-09-13T00:36:20.241Z,70.63
2022-09-13T00:38:46.983Z,70.90
2022-09-13T00:41:16.547Z,70.61
2022-09-13T00:43:46.175Z,70.74
2022-09-13T00:46:43.007Z,70.87
2022-09-13T00:49:14.583Z,70.44
2022-09-13T00:51:43.021Z,70.69
2022-09-13T00:54:09.989Z,70.61
2022-09-13T00:56:40.584Z,70.59
2022-09-13T00:59:12.659Z,70.69
2022-09-13T01:01:46.732Z,70.57
2022-09-13T01:04:13.741Z,70.54
2022-09-13T01:06:41.545Z,70.52
2022-09-13T01:09:08.567Z,70.06
2022-09-13T01:11:45.959Z,70.08
2022-09-13T01:14:12.896Z,70.22
2022-09-13T01:16:39.597Z,70.19
2022-09-13T01:19:06.361Z,70.15
2022-09-13T01:22:10.131Z,70.16
2022-09-13T01:24:36.792Z,70.28
2022-09-13T01:27:22.137Z,70.19
2022-09-13T01:29:58.734Z,70.21
2022-09-13T01:32:41.656Z,70.11
2022-09-13T01:35:24.145Z,70.19
2022-09-13T01:37:55.713Z,70.32
2022-09-13T01:41:04.509Z,69.73
2022-09-13T01:43:35.433Z,70.24
2022-09-13T01:46:11.226Z,69.94
2022-09-13T01:49:03.739Z,70.46
2022-09-13T01:51:34.535Z,70.29
2022-09-13T01:54:11.226Z,70.31
2022-09-13T01:56:42.958Z,70.26
2022-09-13T01:59:22.519Z,70.32
2022-09-13T02:01:58.965Z,70.31
2022-09-13T02:04:29.195Z,70.13
2022-09-13T02:07:09.519Z,70.35
2022-09-13T02:09:42.633Z,70.27
2022-09-13T02:12:14.636Z,70.58
2022-09-13T02:14:44.598Z,70.98
2022-09-13T02:17:24.440Z,70.61
2022-09-13T02:20:03.038Z,70.98
2022-09-13T02:22:34.105Z,71.18
2022-09-13T02:25:06.530Z,70.94
2022-09-13T02:27:34.527Z,70.47
2022-09-13T02:30:05.685Z,70.64
2022-09-13T02:32:37.453Z,70.93
2022-09-13T02:35:04.141Z,70.99
2022-09-13T02:37:33.206Z,70.96
2022-09-13T02:40:06.687Z,71.22
2022-09-13T02:42:42.067Z,71.23
2022-09-13T02:45:09.525Z,71.31
2022-09-13T02:47:50.283Z,71.42
2022-09-13T02:50:35.278Z,71.63
2022-09-13T02:53:11.135Z,71.50
2022-09-13T02:55:37.978Z,71.75
2022-09-13T02:58:14.625Z,71.73
2022-09-13T03:00:41.523Z,71.83
2022-09-13T03:03:11.022Z,71.78
2022-09-13T03:05:37.951Z,71.41
2022-09-13T03:08:06.117Z,71.19
2022-09-13T03:10:54.002Z,71.51
2022-09-13T03:13:23.705Z,71.56
2022-09-13T03:15:50.972Z,71.42
2022-09-13T03:18:33.115Z,71.31
2022-09-13T03:21:36.800Z,71.39
2022-09-13T03:24:23.689Z,71.46
2022-09-13T03:27:18.435Z,71.14
2022-09-13T03:30:07.937Z,71.26
2022-09-13T03:32:47.000Z,71.32
2022-09-13T03:35:23.033Z,71.31
2022-09-13T03:37:57.292Z,71.45
2022-09-13T03:40:36.309Z,71.11
2022-09-13T03:43:18.716Z,71.44
2022-09-13T03:45:49.596Z,71.32
2022-09-13T03:48:16.905Z,71.36
2022-09-13T03:50:45.885Z,71.30
2022-09-13T03:53:15.516Z,71.20
2022-09-13T03:55:43.471Z,71.45
2022-09-13T03:58:15.480Z,71.70
2022-09-13T04:00:42.525Z,72.15
2022-09-13T04:03:09.586Z,72.30
2022-09-13T04:05:36.395Z,72.34
2022-09-13T04:08:05.887Z,72.52
2022-09-13T04:10:33.390Z,72.89
2022-09-13T04:13:00.576Z,72.97
2022-09-13T04:15:28.167Z,73.09
2022-09-13T04:17:54.912Z,73.63
2022-09-13T04:20:22.241Z,73.52
2022-09-13T04:22:53.274Z,73.65
2022-09-13T04:25:20.712Z,73.65
2022-09-13T04:27:47.386Z,73.38
2022-09-13T04:30:14.528Z,73.26
2022-09-13T04:32:44.765Z,73.36
2022-09-13T04:35:12.032Z,73.30
2022-09-13T04:37:39.288Z,73.36
2022-09-13T04:40:09.526Z,73.16
2022-09-13T04:42:36.338Z,73.52
2022-09-13T04:45:03.437Z,73.65
2022-09-13T04:47:31.050Z,73.77
2022-09-13T04:49:57.788Z,74.31
2022-09-13T04:52:24.477Z,74.63
2022-09-13T04:54:51.200Z,74.25
2022-09-13T04:57:17.967Z,74.12
2022-09-13T04:59:44.765Z,74.26
2022-09-13T05:02:11.585Z,74.66
2022-09-13T05:04:38.649Z,74.92
2022-09-13T05:07:05.316Z,74.64
2022-09-13T05:09:32.214Z,74.68
2022-09-13T05:11:58.871Z,74.64
2022-09-13T05:14:25.692Z,75.11
2022-09-13T05:16:52.681Z,73.98
2022-09-13T05:19:19.353Z,73.87
2022-09-13T05:21:46.016Z,73.67
2022-09-13T05:24:12.702Z,73.87
2022-09-13T05:26:39.396Z,73.65
2022-09-13T05:29:06.079Z,73.93
2022-09-13T05:31:35.522Z,73.78
2022-09-13T05:34:06.727Z,73.68
2022-09-13T05:36:33.674Z,73.46
2022-09-13T05:39:28.473Z,73.48
2022-09-13T05:41:48.380Z,73.71
2022-09-13T05:44:15.064Z,74.04
2022-09-13T05:46:42.990Z,74.15
2022-09-13T05:49:09.671Z,74.41
2022-09-13T05:51:36.575Z,75.06
2022-09-13T05:54:03.561Z,75.22
2022-09-13T05:56:32.199Z,75.82
2022-09-13T05:58:59.273Z,76.85
2022-09-13T06:01:27.895Z,76.90
2022-09-13T06:03:56.517Z,77.20
2022-09-13T06:06:24.148Z,76.97
2022-09-13T06:08:57.706Z,77.22
2022-09-13T06:11:26.300Z,77.37
2022-09-13T06:13:53.389Z,77.80
2022-09-13T06:16:20.407Z,77.71
2022-09-13T06:18:47.089Z,77.23
2022-09-13T06:21:18.232Z,77.31
2022-09-13T06:23:54.632Z,77.00
2022-09-13T06:26:23.573Z,76.88
2022-09-13T06:28:51.765Z,77.12
2022-09-13T06:31:20.537Z,76.88
2022-09-13T06:33:47.505Z,77.36
2022-09-13T06:36:18.804Z,77.52
2022-09-13T06:38:49.117Z,77.59
2022-09-13T06:41:20.758Z,77.66
2022-09-13T06:43:48.172Z,77.38
2022-09-13T06:46:20.475Z,77.75
2022-09-13T06:48:50.965Z,77.60
2022-09-13T06:51:19.570Z,77.67
2022-09-13T06:53:48.541Z,76.80
2022-09-13T06:56:17.527Z,77.15
2022-09-13T06:58:46.168Z,77.19
2022-09-13T07:01:18.864Z,78.39
2022-09-13T07:03:48.186Z,78.39
2022-09-13T07:06:22.412Z,78.59
2022-09-13T07:08:51.590Z,79.22
2022-09-13T07:11:21.061Z,78.24
2022-09-13T07:13:52.377Z,78.91
2022-09-13T07:16:21.307Z,79.92
2022-09-13T07:18:52.619Z,80.71
2022-09-13T07:21:19.479Z,80.69
2022-09-13T07:23:46.233Z,80.55
2022-09-13T07:26:12.921Z,80.48
2022-09-13T07:28:41.278Z,79.96
2022-09-13T07:31:10.840Z,79.90
2022-09-13T07:33:39.029Z,80.19
2022-09-13T07:36:06.889Z,80.27
2022-09-13T07:38:34.986Z,80.04
2022-09-13T07:41:02.094Z,79.64
2022-09-13T07:43:29.384Z,79.40
2022-09-13T07:46:10.258Z,79.34
2022-09-13T07:48:39.522Z,79.70
2022-09-13T07:51:08.832Z,80.22
2022-09-13T07:53:36.844Z,80.24
2022-09-13T07:56:14.952Z,80.36
2022-09-13T07:58:43.416Z,80.24
2022-09-13T08:01:16.132Z,79.95
2022-09-13T08:03:43.228Z,79.17
2022-09-13T08:06:10.202Z,79.03
2022-09-13T08:08:37.579Z,78.85
2022-09-13T08:11:06.268Z,78.50
2022-09-13T08:13:33.286Z,78.64
2022-09-13T08:16:05.058Z,78.51
2022-09-13T08:18:32.125Z,78.04
2022-09-13T08:20:59.886Z,78.23
2022-09-13T08:23:27.489Z,77.80
2022-09-13T08:25:54.292Z,78.28
2022-09-13T08:28:26.784Z,77.82
2022-09-13T08:30:54.282Z,77.56
2022-09-13T08:33:21.196Z,77.47
2022-09-13T08:35:52.622Z,77.45
2022-09-13T08:38:19.965Z,77.66
2022-09-13T08:40:55.816Z,77.54
2022-09-13T08:43:46.294Z,77.28
2022-09-13T08:46:27.148Z,78.19
2022-09-13T08:48:56.807Z,78.04
2022-09-13T08:51:39.289Z,78.71
2022-09-13T08:54:06.420Z,77.42
2022-09-13T08:56:42.624Z,76.51
2022-09-13T08:59:27.139Z,75.87
2022-09-13T09:02:18.646Z,74.99
2022-09-13T09:05:01.737Z,74.98
2022-09-13T09:07:31.935Z,74.05
2022-09-13T09:09:59.915Z,73.75
2022-09-13T09:12:32.746Z,72.18
2022-09-13T09:15:04.534Z,71.09
2022-09-13T09:18:04.965Z,69.23
2022-09-13T09:20:41.027Z,69.48
2022-09-13T09:23:30.457Z,67.88
2022-09-13T09:26:09.512Z,68.86
2022-09-13T09:28:36.187Z,67.42
2022-09-13T09:31:08.903Z,66.86
2022-09-13T09:34:08.884Z,68.11
2022-09-13T09:37:13.903Z,67.97
2022-09-13T09:39:40.946Z,65.80
2022-09-13T09:42:28.695Z,66.66
2022-09-13T09:44:58.646Z,66.03
2022-09-13T09:47:33.118Z,66.00
2022-09-13T09:50:09.457Z,65.52
2022-09-13T09:53:14.950Z,64.16
2022-09-13T09:56:01.146Z,63.24
2022-09-13T09:58:39.793Z,61.58
2022-09-13T10:01:25.930Z,61.93
2022-09-13T10:04:13.075Z,60.52
2022-09-13T10:06:41.256Z,59.37
2022-09-13T10:09:16.932Z,58.44
2022-09-13T10:11:58.279Z,59.45
2022-09-13T10:14:38.295Z,61.11
2022-09-13T10:17:06.594Z,61.04
2022-09-13T10:19:33.653Z,59.83
2022-09-13T10:22:02.632Z,60.35
2022-09-13T10:24:30.642Z,61.08
2022-09-13T10:26:58.551Z,60.53
2022-09-13T10:29:27.815Z,60.83
2022-09-13T10:31:57.913Z,60.91
2022-09-13T10:34:29.177Z,61.04
2022-09-13T10:37:21.587Z,60.68
2022-09-13T10:40:05.529Z,61.35
2022-09-13T10:42:32.650Z,61.93
2022-09-13T10:45:02.132Z,62.49
2022-09-13T10:47:40.259Z,60.38
2022-09-13T10:50:22.568Z,60.54
2022-09-13T10:52:59.877Z,60.17
2022-09-13T10:55:31.423Z,60.21
2022-09-13T10:58:07.503Z,61.06
2022-09-13T11:01:06.106Z,63.29
2022-09-13T11:03:38.695Z,64.39
2022-09-13T11:06:31.078Z,65.67
2022-09-13T11:09:19.254Z,66.59
2022-09-13T11:12:21.977Z,67.90
2022-09-13T11:15:05.175Z,69.41
2022-09-13T11:17:50.219Z,70.36
2022-09-13T11:20:27.408Z,71.13
2022-09-13T11:22:57.024Z,71.25
2022-09-13T11:25:38.219Z,71.51
2022-09-13T11:28:10.530Z,71.67
2022-09-13T11:31:03.539Z,72.18
2022-09-13T11:33:46.315Z,72.61
2022-09-13T11:36:24.870Z,72.18
2022-09-13T11:39:08.578Z,72.31
2022-09-13T11:41:48.515Z,72.64
2022-09-13T11:44:40.762Z,73.15
2022-09-13T11:47:26.438Z,73.22
2022-09-13T11:50:04.433Z,73.36
2022-09-13T11:53:24.218Z,72.97
2022-09-13T11:56:02.145Z,73.77
2022-09-13T11:58:35.619Z,73.95
2022-09-13T12:01:05.436Z,74.19
2022-09-13T12:03:50.703Z,74.33
2022-09-13T12:06:34.317Z,74.28
2022-09-13T12:09:07.119Z,74.21
2022-09-13T12:11:35.833Z,74.47
2022-09-13T12:14:05.920Z,74.70
2022-09-13T12:16:36.027Z,74.69
2022-09-13T12:19:17.607Z,75.26
2022-09-13T12:21:45.022Z,75.09
2022-09-13T12:24:17.104Z,75.11
2022-09-13T12:27:23.946Z,75.08
2022-09-13T12:29:53.675Z,75.22
2022-09-13T12:32:21.167Z,74.97
2022-09-13T12:34:58.681Z,74.74
2022-09-13T12:37:31.701Z,75.06
2022-09-13T12:40:18.773Z,75.35
2022-09-13T12:42:56.685Z,75.62
2022-09-13T12:45:50.978Z,75.56
2022-09-13T12:48:43.784Z,75.65
2022-09-13T12:51:40.462Z,75.77
2022-09-13T12:54:07.657Z,75.21
2022-09-13T12:56:46.007Z,74.71
2022-09-13T12:59:24.868Z,74.64
2022-09-13T13:01:52.422Z,75.00
2022-09-13T13:04:21.761Z,74.67
2022-09-13T13:06:57.627Z,74.64
2022-09-13T13:09:31.468Z,75.21
2022-09-13T13:11:58.663Z,74.87
2022-09-13T13:14:40.760Z,75.50
2022-09-13T13:17:44.922Z,75.90
2022-09-13T13:20:49.262Z,75.83
2022-09-13T13:23:38.551Z,76.32
2022-09-13T13:26:12.256Z,76.29
2022-09-13T13:28:48.215Z,76.64
2022-09-13T13:31:24.104Z,76.29
2022-09-13T13:34:14.137Z,75.64
2022-09-13T13:36:41.138Z,75.41
2022-09-13T13:39:10.400Z,75.52
2022-09-13T13:41:40.521Z,75.80
2022-09-13T13:44:19.871Z,75.43
2022-09-13T13:46:51.340Z,75.16
2022-09-13T13:49:30.288Z,74.96
2022-09-13T13:52:09.344Z,75.37
2022-09-13T13:54:42.166Z,75.03
2022-09-13T13:57:21.131Z,74.39
2022-09-13T13:59:50.199Z,74.73
2022-09-13T14:02:19.277Z,74.34
2022-09-13T14:05:18.952Z,73.76
2022-09-13T14:08:19.807Z,72.55
2022-09-13T14:11:31.545Z,73.02
2022-09-13T14:14:23.655Z,73.34
2022-09-13T14:17:00.526Z,73.01
2022-09-13T14:19:28.783Z,72.80
2022-09-13T14:22:15.740Z,72.81
2022-09-13T14:24:48.888Z,72.24
2022-09-13T14:27:23.804Z,72.69
2022-09-13T14:29:55.898Z,72.12
2022-09-13T14:32:26.885Z,72.96
2022-09-13T14:35:01.351Z,72.88
2022-09-13T14:37:31.872Z,72.54
2022-09-13T14:40:01.721Z,72.91
2022-09-13T14:42:39.503Z,72.80
2022-09-13T14:45:06.555Z,72.65
2022-09-13T14:47:53.425Z,72.68
2022-09-13T14:50:27.560Z,72.54
2022-09-13T14:52:54.218Z,72.56
2022-09-13T14:55:43.462Z,73.02
2022-09-13T14:58:23.333Z,72.91
2022-09-13T15:00:53.453Z,72.66
2022-09-13T15:03:20.383Z,72.51
2022-09-13T15:05:59.902Z,72.35
2022-09-13T15:08:32.823Z,72.24
2022-09-13T15:11:06.933Z,72.58
2022-09-13T15:13:34.163Z,71.95
2022-09-13T15:16:00.955Z,71.29
2022-09-13T15:18:36.147Z,72.17
2022-09-13T15:21:07.553Z,71.80
2022-09-13T15:23:39.601Z,72.03
2022-09-13T15:26:13.160Z,71.61
2022-09-13T15:28:48.962Z,71.17
2022-09-13T15:31:23.400Z,71.35
2022-09-13T15:34:13.958Z,71.39
2022-09-13T15:36:40.673Z,71.67
2022-09-13T15:39:17.576Z,72.01
2022-09-13T15:41:59.189Z,72.37
2022-09-13T15:44:29.961Z,72.41
2022-09-13T15:47:05.083Z,71.78
2022-09-13T15:49:32.361Z,71.98
2022-09-13T15:52:03.312Z,71.88
2022-09-13T15:54:34.912Z,71.72
2022-09-13T15:57:01.822Z,71.93
2022-09-13T15:59:28.612Z,72.11
2022-09-13T16:01:56.046Z,72.31
2022-09-13T16:04:23.224Z,71.92
2022-09-13T16:06:49.988Z,72.26
2022-09-13T16:09:20.845Z,71.71
2022-09-13T16:11:48.838Z,71.90
2022-09-13T16:14:15.885Z,72.34
2022-09-13T16:16:43.017Z,71.98
2022-09-13T16:19:16.900Z,72.25
2022-09-13T16:21:43.628Z,72.10
2022-09-13T16:24:11.538Z,72.37
2022-09-13T16:26:38.788Z,72.50
2022-09-13T16:29:05.792Z,72.55
2022-09-13T16:31:32.652Z,72.40
2022-09-13T16:33:59.341Z,72.58
2022-09-13T16:36:28.914Z,72.82
2022-09-13T16:38:56.459Z,73.05
2022-09-13T16:41:23.415Z,73.01
2022-09-13T16:43:51.413Z,73.17
2022-09-13T16:46:18.307Z,72.91
2022-09-13T16:48:45.181Z,73.24
2022-09-13T16:51:12.935Z,73.58
2022-09-13T16:53:41.624Z,73.74
2022-09-13T16:56:16.538Z,73.50
2022-09-13T16:58:46.826Z,73.62
2022-09-13T17:01:15.730Z,73.97
2022-09-13T17:03:42.742Z,73.81
2022-09-13T17:06:11.828Z,74.14
2022-09-13T17:08:40.213Z,74.13
2022-09-13T17:11:12.676Z,74.29
2022-09-13T17:13:40.803Z,74.20
2022-09-13T17:16:20.731Z,74.09
2022-09-13T17:18:47.623Z,73.90
2022-09-13T17:21:14.321Z,73.88
2022-09-13T17:23:41.062Z,74.30
2022-09-13T17:26:07.787Z,74.37
2022-09-13T17:28:36.714Z,74.06
2022-09-13T17:31:03.520Z,74.61
2022-09-13T17:33:30.254Z,74.23
2022-09-13T17:36:05.977Z,74.14
2022-09-13T17:38:33.073Z,74.29
2022-09-13T17:41:05.746Z,74.20
2022-09-13T17:43:33.781Z,74.16
2022-09-13T17:46:05.695Z,74.24
2022-09-13T17:48:32.420Z,74.42
2022-09-13T17:51:07.976Z,74.47
2022-09-13T17:53:55.828Z,74.59
2022-09-13T17:56:31.437Z,74.77
2022-09-13T17:59:10.224Z,74.37
2022-09-13T18:01:39.429Z,74.50
2022-09-13T18:04:07.927Z,74.79
2022-09-13T18:06:36.530Z,74.52
2022-09-13T18:09:08.161Z,74.34
2022-09-13T18:11:35.470Z,74.68
2022-09-13T18:14:02.862Z,74.87
2022-09-13T18:16:30.200Z,74.99
2022-09-13T18:18:57.068Z,74.63
2022-09-13T18:21:25.424Z,74.54
2022-09-13T18:23:55.620Z,74.69
2022-09-13T18:26:23.531Z,75.05
2022-09-13T18:28:56.056Z,75.09
2022-09-13T18:31:23.846Z,75.58
2022-09-13T18:33:58.320Z,75.75
2022-09-13T18:36:26.234Z,75.51
2022-09-13T18:38:53.905Z,75.70
2022-09-13T18:41:23.533Z,75.63
2022-09-13T18:43:55.437Z,75.83
2022-09-13T18:46:25.227Z,75.52
2022-09-13T18:48:54.382Z,75.45
2022-09-13T18:51:35.532Z,75.77
2022-09-13T18:54:03.151Z,75.37
2022-09-13T18:56:29.937Z,75.68
2022-09-13T18:58:56.965Z,75.78
2022-09-13T19:01:26.989Z,75.88
2022-09-13T19:04:02.193Z,75.97
2022-09-13T19:06:40.706Z,76.30
2022-09-13T19:09:08.501Z,76.17
2022-09-13T19:11:47.211Z,76.25
2022-09-13T19:14:23.362Z,76.05
2022-09-13T19:16:51.280Z,76.24
2022-09-13T19:19:18.041Z,76.44
2022-09-13T19:21:45.022Z,76.07
2022-09-13T19:24:18.447Z,76.44
2022-09-13T19:26:47.484Z,76.37
2022-09-13T19:29:15.798Z,75.96
2022-09-13T19:31:47.688Z,76.24
2022-09-13T19:34:15.602Z,76.14
2022-09-13T19:36:44.318Z,75.93
2022-09-13T19:39:11.219Z,75.93
2022-09-13T19:41:38.844Z,76.07
2022-09-13T19:44:06.006Z,76.04
2022-09-13T19:46:35.618Z,76.36
2022-09-13T19:49:02.941Z,76.12
2022-09-13T19:51:35.798Z,76.29
2022-09-13T19:54:03.957Z,76.18
2022-09-13T19:56:34.409Z,76.05
2022-09-13T19:59:01.829Z,76.19
2022-09-13T20:01:31.822Z,76.23
2022-09-13T20:04:03.391Z,75.89
2022-09-13T20:06:44.749Z,76.02
2022-09-13T20:09:13.191Z,76.12
2022-09-13T20:11:42.550Z,76.20
2022-09-13T20:14:11.272Z,76.03
2022-09-13T20:16:39.614Z,75.73
2022-09-13T20:19:29.540Z,76.00
2022-09-13T20:21:55.698Z,75.89
2022-09-13T20:24:23.313Z,75.81
2022-09-13T20:26:52.305Z,75.55
2022-09-13T20:29:19.524Z,75.81
2022-09-13T20:31:47.274Z,75.69
2022-09-13T20:34:17.383Z,75.87
2022-09-13T20:36:45.673Z,75.95
2022-09-13T20:39:12.514Z,75.96
2022-09-13T20:41:39.253Z,76.03
2022-09-13T20:44:07.690Z,76.20
2022-09-13T20:46:34.435Z,76.13
2022-09-13T20:49:02.555Z,76.48
2022-09-13T20:51:33.942Z,76.33
2022-09-13T20:54:01.382Z,76.26
2022-09-13T20:56:29.046Z,76.31
2022-09-13T20:58:58.405Z,76.31
2022-09-13T21:01:26.672Z,76.48
2022-09-13T21:03:54.707Z,76.52
2022-09-13T21:06:27.329Z,76.21
2022-09-13T21:08:56.516Z,76.23
2022-09-13T21:11:34.042Z,76.23
2022-09-13T21:14:05.515Z,76.56
2022-09-13T21:16:34.433Z,76.40
2022-09-13T21:19:01.497Z,76.18
2022-09-13T21:21:30.661Z,75.91
2022-09-13T21:23:58.500Z,75.85
2022-09-13T21:26:27.046Z,75.65
2022-09-13T21:28:54.797Z,75.50
2022-09-13T21:31:25.206Z,75.53
2022-09-13T21:33:56.859Z,75.26
2022-09-13T21:36:24.225Z,75.26
2022-09-13T21:38:52.035Z,75.08
2022-09-13T21:41:18.899Z,74.90
2022-09-13T21:43:45.722Z,74.95
2022-09-13T21:46:16.820Z,75.16
2022-09-13T21:48:46.547Z,74.67
2022-09-13T21:51:18.357Z,74.58
2022-09-13T21:53:46.210Z,74.38
2022-09-13T21:56:15.408Z,74.85
2022-09-13T21:58:42.712Z,74.62
2022-09-13T22:01:14.354Z,74.50
2022-09-13T22:03:43.270Z,74.49
2022-09-13T22:06:19.639Z,74.13
2022-09-13T22:08:49.333Z,73.95
2022-09-13T22:11:19.908Z,73.88
2022-09-13T22:13:47.732Z,73.81
2022-09-13T22:16:21.300Z,73.59
2022-09-13T22:18:57.730Z,73.69
2022-09-13T22:21:27.409Z,73.54
2022-09-13T22:23:54.566Z,73.43
2022-09-13T22:26:23.935Z,72.96
2022-09-13T22:28:51.296Z,73.46
2022-09-13T22:31:20.749Z,73.32
2022-09-13T22:33:47.530Z,73.18
2022-09-13T22:36:15.834Z,73.06
2022-09-13T22:38:43.691Z,73.40
2022-09-13T22:41:14.166Z,73.18
2022-09-13T22:43:41.754Z,73.30
2022-09-13T22:46:09.841Z,73.18
2022-09-13T22:48:36.707Z,73.36
2022-09-13T22:51:06.173Z,73.40
2022-09-13T22:53:35.170Z,73.54
2022-09-13T22:56:05.989Z,73.46
2022-09-13T22:58:32.716Z,73.21
2022-09-13T23:01:04.750Z,73.14
2022-09-13T23:03:31.938Z,73.63
2022-09-13T23:05:58.619Z,73.41
2022-09-13T23:08:28.389Z,73.69
2022-09-13T23:10:56.159Z,73.49
2022-09-13T23:13:22.939Z,73.37
2022-09-13T23:15:50.085Z,73.59
2022-09-13T23:18:16.781Z,73.56
2022-09-13T23:20:43.505Z,73.52
2022-09-13T23:23:11.254Z,73.70
2022-09-13T23:25:37.980Z,73.09
2022-09-13T23:28:04.699Z,73.24
2022-09-13T23:30:31.354Z,73.25
2022-09-13T23:32:58.105Z,73.47
2022-09-13T23:35:24.866Z,73.18
2022-09-13T23:37:51.550Z,73.37
2022-09-13T23:40:18.299Z,73.78
2022-09-13T23:42:44.997Z,74.02
2022-09-13T23:45:12.272Z,73.88
2022-09-13T23:47:39.085Z,74.24
2022-09-13T23:50:06.163Z,74.27
2022-09-13T23:52:33.051Z,73.71
2022-09-13T23:55:00.619Z,73.73
2022-09-13T23:57:27.321Z,73.84
2022-09-13T23:59:53.970Z,73.87
